sensor_id;sensor_type;location;lat;lon;timestamp;temperature;humidity
4566;DHT22;2295;51.050;14.608;2022-12-26T00:01:29;6.90;99.90
4566;DHT22;2295;51.050;14.608;2022-12-26T00:04:00;6.90;99.90
4566;DHT22;2295;51.050;14.608;2022-12-26T00:06:29;7.00;99.90
4566;DHT22;2295;51.050;14.608;2022-12-26T00:09:02;7.00;99.90
4566;DHT22;2295;51.050;14.608;2022-12-26T00:11:31;7.10;99.90
4566;DHT22;2295;51.050;14.608;2022-12-26T00:14:01;7.10;99.90
4566;DHT22;2295;51.050;14.608;2022-12-26T00:16:31;7.10;99.90
4566;DHT22;2295;51.050;14.608;2022-12-26T00:19:02;7.00;99.90
4566;DHT22;2295;51.050;14.608;2022-12-26T00:21:32;7.00;99.90
4566;DHT22;2295;51.050;14.608;2022-12-26T00:24:01;6.90;99.90
4566;DHT22;2295;51.050;14.608;2022-12-26T00:26:32;6.80;99.90
4566;DHT22;2295;51.050;14.608;2022-12-26T00:29:02;6.70;99.90
4566;DHT22;2295;51.050;14.608;2022-12-26T00:31:32;6.70;99.90
4566;DHT22;2295;51.050;14.608;2022-12-26T00:34:02;6.70;99.90
4566;DHT22;2295;51.050;14.608;2022-12-26T00:36:32;6.80;99.90
4566;DHT22;2295;51.050;14.608;2022-12-26T00:39:02;6.70;99.90
4566;DHT22;2295;51.050;14.608;2022-12-26T00:41:31;6.60;99.90
4566;DHT22;2295;51.050;14.608;2022-12-26T00:44:00;6.70;99.90
4566;DHT22;2295;51.050;14.608;2022-12-26T00:46:29;6.80;99.90
4566;DHT22;2295;51.050;14.608;2022-12-26T00:48:58;6.70;99.90
4566;DHT22;2295;51.050;14.608;2022-12-26T00:51:28;6.80;99.90
4566;DHT22;2295;51.050;14.608;2022-12-26T00:53:57;6.80;99.90
4566;DHT22;2295;51.050;14.608;2022-12-26T00:56:25;6.80;99.90
4566;DHT22;2295;51.050;14.608;2022-12-26T00:58:53;6.70;99.90
4566;DHT22;2295;51.050;14.608;2022-12-26T01:01:22;6.70;99.90
4566;DHT22;2295;51.050;14.608;2022-12-26T01:03:51;6.70;99.90
4566;DHT22;2295;51.050;14.608;2022-12-26T01:06:19;6.80;99.90
4566;DHT22;2295;51.050;14.608;2022-12-26T01:08:49;6.80;99.90
4566;DHT22;2295;51.050;14.608;2022-12-26T01:11:18;6.80;99.90
4566;DHT22;2295;51.050;14.608;2022-12-26T01:14:09;6.90;99.90
4566;DHT22;2295;51.050;14.608;2022-12-26T01:16:38;7.00;99.90
4566;DHT22;2295;51.050;14.608;2022-12-26T01:19:07;7.00;99.90
4566;DHT22;2295;51.050;14.608;2022-12-26T01:21:36;7.00;99.90
4566;DHT22;2295;51.050;14.608;2022-12-26T01:24:06;7.00;99.90
4566;DHT22;2295;51.050;14.608;2022-12-26T01:26:34;7.00;99.90
4566;DHT22;2295;51.050;14.608;2022-12-26T01:29:03;6.90;99.90
4566;DHT22;2295;51.050;14.608;2022-12-26T01:31:31;6.90;99.90
4566;DHT22;2295;51.050;14.608;2022-12-26T01:34:00;6.90;99.90
4566;DHT22;2295;51.050;14.608;2022-12-26T01:36:28;6.80;99.90
4566;DHT22;2295;51.050;14.608;2022-12-26T01:38:57;6.80;99.90
4566;DHT22;2295;51.050;14.608;2022-12-26T01:41:27;6.90;99.90
4566;DHT22;2295;51.050;14.608;2022-12-26T01:43:59;6.90;99.90
4566;DHT22;2295;51.050;14.608;2022-12-26T01:46:30;7.10;99.90
4566;DHT22;2295;51.050;14.608;2022-12-26T01:49:07;7.30;99.90
4566;DHT22;2295;51.050;14.608;2022-12-26T01:51:37;7.30;99.90
4566;DHT22;2295;51.050;14.608;2022-12-26T01:54:08;7.20;99.90
4566;DHT22;2295;51.050;14.608;2022-12-26T01:56:59;7.20;99.90
4566;DHT22;2295;51.050;14.608;2022-12-26T01:59:31;7.20;99.90
4566;DHT22;2295;51.050;14.608;2022-12-26T02:02:02;7.10;99.90
4566;DHT22;2295;51.050;14.608;2022-12-26T02:04:34;7.10;99.90
4566;DHT22;2295;51.050;14.608;2022-12-26T02:07:23;7.10;99.90
4566;DHT22;2295;51.050;14.608;2022-12-26T02:09:53;7.10;99.90
4566;DHT22;2295;51.050;14.608;2022-12-26T02:12:26;7.10;99.90
4566;DHT22;2295;51.050;14.608;2022-12-26T02:15:05;7.10;99.90
4566;DHT22;2295;51.050;14.608;2022-12-26T02:17:33;7.10;99.90
4566;DHT22;2295;51.050;14.608;2022-12-26T02:20:12;7.10;99.90
4566;DHT22;2295;51.050;14.608;2022-12-26T02:32:01;7.00;99.90
4566;DHT22;2295;51.050;14.608;2022-12-26T02:34:42;7.20;99.90
4566;DHT22;2295;51.050;14.608;2022-12-26T02:37:23;7.20;99.90
4566;DHT22;2295;51.050;14.608;2022-12-26T02:40:02;7.20;99.90
4566;DHT22;2295;51.050;14.608;2022-12-26T02:42:43;7.30;99.90
4566;DHT22;2295;51.050;14.608;2022-12-26T02:45:24;7.30;99.90
4566;DHT22;2295;51.050;14.608;2022-12-26T02:48:18;7.20;99.90
4566;DHT22;2295;51.050;14.608;2022-12-26T02:50:54;7.10;99.90
4566;DHT22;2295;51.050;14.608;2022-12-26T02:53:47;7.10;99.90
4566;DHT22;2295;51.050;14.608;2022-12-26T02:56:36;7.10;99.90
4566;DHT22;2295;51.050;14.608;2022-12-26T02:59:28;7.10;99.90
4566;DHT22;2295;51.050;14.608;2022-12-26T03:02:27;7.10;99.90
4566;DHT22;2295;51.050;14.608;2022-12-26T03:05:22;7.10;99.90
4566;DHT22;2295;51.050;14.608;2022-12-26T03:08:13;7.00;99.90
4566;DHT22;2295;51.050;14.608;2022-12-26T03:11:00;7.00;99.90
4566;DHT22;2295;51.050;14.608;2022-12-26T03:13:48;6.90;99.90
4566;DHT22;2295;51.050;14.608;2022-12-26T03:16:20;6.90;99.90
4566;DHT22;2295;51.050;14.608;2022-12-26T03:19:09;6.90;99.90
4566;DHT22;2295;51.050;14.608;2022-12-26T03:21:42;6.90;99.90
4566;DHT22;2295;51.050;14.608;2022-12-26T03:24:15;6.90;99.90
4566;DHT22;2295;51.050;14.608;2022-12-26T03:26:48;6.90;99.90
4566;DHT22;2295;51.050;14.608;2022-12-26T03:29:19;6.90;99.90
4566;DHT22;2295;51.050;14.608;2022-12-26T03:32:07;6.90;99.90
4566;DHT22;2295;51.050;14.608;2022-12-26T03:34:40;6.80;99.90
4566;DHT22;2295;51.050;14.608;2022-12-26T03:37:33;6.80;99.90
4566;DHT22;2295;51.050;14.608;2022-12-26T03:40:23;6.70;99.90
4566;DHT22;2295;51.050;14.608;2022-12-26T03:43:19;6.70;99.90
4566;DHT22;2295;51.050;14.608;2022-12-26T03:46:14;6.60;99.90
4566;DHT22;2295;51.050;14.608;2022-12-26T03:49:07;6.50;99.90
4566;DHT22;2295;51.050;14.608;2022-12-26T03:51:58;6.50;99.90
4566;DHT22;2295;51.050;14.608;2022-12-26T03:54:54;6.60;99.90
4566;DHT22;2295;51.050;14.608;2022-12-26T03:57:47;6.60;99.90
4566;DHT22;2295;51.050;14.608;2022-12-26T04:00:35;6.80;99.90
4566;DHT22;2295;51.050;14.608;2022-12-26T04:03:23;6.90;99.90
4566;DHT22;2295;51.050;14.608;2022-12-26T04:06:15;7.00;99.90
4566;DHT22;2295;51.050;14.608;2022-12-26T04:09:07;7.00;99.90
4566;DHT22;2295;51.050;14.608;2022-12-26T04:11:58;7.00;99.90
4566;DHT22;2295;51.050;14.608;2022-12-26T04:14:50;7.00;99.90
4566;DHT22;2295;51.050;14.608;2022-12-26T04:17:40;7.00;99.90
4566;DHT22;2295;51.050;14.608;2022-12-26T04:20:32;6.90;99.90
4566;DHT22;2295;51.050;14.608;2022-12-26T04:23:07;6.80;99.90
4566;DHT22;2295;51.050;14.608;2022-12-26T04:25:59;6.80;99.90
4566;DHT22;2295;51.050;14.608;2022-12-26T04:28:48;6.80;99.90
4566;DHT22;2295;51.050;14.608;2022-12-26T04:31:39;6.80;99.90
4566;DHT22;2295;51.050;14.608;2022-12-26T04:34:33;6.80;99.90
4566;DHT22;2295;51.050;14.608;2022-12-26T04:37:25;6.70;99.90
4566;DHT22;2295;51.050;14.608;2022-12-26T04:40:16;6.80;99.90
4566;DHT22;2295;51.050;14.608;2022-12-26T04:43:04;6.70;99.90
4566;DHT22;2295;51.050;14.608;2022-12-26T04:46:13;6.70;99.90
4566;DHT22;2295;51.050;14.608;2022-12-26T04:48:43;6.60;99.90
4566;DHT22;2295;51.050;14.608;2022-12-26T04:51:29;6.50;99.90
4566;DHT22;2295;51.050;14.608;2022-12-26T04:53:58;6.50;99.90
4566;DHT22;2295;51.050;14.608;2022-12-26T04:56:26;6.50;99.90
4566;DHT22;2295;51.050;14.608;2022-12-26T04:58:55;6.50;99.90
4566;DHT22;2295;51.050;14.608;2022-12-26T05:01:24;6.50;99.90
4566;DHT22;2295;51.050;14.608;2022-12-26T05:04:13;6.40;99.90
4566;DHT22;2295;51.050;14.608;2022-12-26T05:06:59;6.30;99.90
4566;DHT22;2295;51.050;14.608;2022-12-26T05:09:53;6.30;99.90
4566;DHT22;2295;51.050;14.608;2022-12-26T05:12:21;6.30;99.90
4566;DHT22;2295;51.050;14.608;2022-12-26T05:14:50;6.40;99.90
4566;DHT22;2295;51.050;14.608;2022-12-26T05:17:20;6.40;99.90
4566;DHT22;2295;51.050;14.608;2022-12-26T05:20:06;6.50;99.90
4566;DHT22;2295;51.050;14.608;2022-12-26T05:22:53;6.50;99.90
4566;DHT22;2295;51.050;14.608;2022-12-26T05:25:40;6.60;99.90
4566;DHT22;2295;51.050;14.608;2022-12-26T05:28:27;6.70;99.90
4566;DHT22;2295;51.050;14.608;2022-12-26T05:31:13;6.70;99.90
4566;DHT22;2295;51.050;14.608;2022-12-26T05:33:44;6.80;99.90
4566;DHT22;2295;51.050;14.608;2022-12-26T05:36:32;6.90;99.90
4566;DHT22;2295;51.050;14.608;2022-12-26T05:39:02;6.90;99.90
4566;DHT22;2295;51.050;14.608;2022-12-26T05:41:30;6.90;99.90
4566;DHT22;2295;51.050;14.608;2022-12-26T05:43:59;6.90;99.90
4566;DHT22;2295;51.050;14.608;2022-12-26T05:46:27;6.90;99.90
4566;DHT22;2295;51.050;14.608;2022-12-26T05:48:57;6.80;99.90
4566;DHT22;2295;51.050;14.608;2022-12-26T05:51:26;6.90;99.90
4566;DHT22;2295;51.050;14.608;2022-12-26T05:53:54;6.90;99.90
4566;DHT22;2295;51.050;14.608;2022-12-26T05:56:23;6.90;99.90
4566;DHT22;2295;51.050;14.608;2022-12-26T05:58:57;6.90;99.90
4566;DHT22;2295;51.050;14.608;2022-12-26T06:01:27;6.90;99.90
4566;DHT22;2295;51.050;14.608;2022-12-26T06:03:59;6.80;99.90
4566;DHT22;2295;51.050;14.608;2022-12-26T06:06:28;6.70;99.90
4566;DHT22;2295;51.050;14.608;2022-12-26T06:08:56;6.50;99.90
4566;DHT22;2295;51.050;14.608;2022-12-26T06:11:25;6.50;99.90
4566;DHT22;2295;51.050;14.608;2022-12-26T06:13:54;6.50;99.90
4566;DHT22;2295;51.050;14.608;2022-12-26T06:16:22;6.60;99.90
4566;DHT22;2295;51.050;14.608;2022-12-26T06:18:53;6.60;99.90
4566;DHT22;2295;51.050;14.608;2022-12-26T06:21:23;6.70;99.90
4566;DHT22;2295;51.050;14.608;2022-12-26T06:23:52;6.60;99.90
4566;DHT22;2295;51.050;14.608;2022-12-26T06:26:21;6.60;99.90
4566;DHT22;2295;51.050;14.608;2022-12-26T06:28:49;6.50;99.90
4566;DHT22;2295;51.050;14.608;2022-12-26T06:31:20;6.40;99.90
4566;DHT22;2295;51.050;14.608;2022-12-26T06:33:50;6.40;99.90
4566;DHT22;2295;51.050;14.608;2022-12-26T06:36:21;6.40;99.90
4566;DHT22;2295;51.050;14.608;2022-12-26T06:38:52;6.40;99.90
4566;DHT22;2295;51.050;14.608;2022-12-26T06:41:23;6.40;99.90
4566;DHT22;2295;51.050;14.608;2022-12-26T06:43:52;6.40;99.90
4566;DHT22;2295;51.050;14.608;2022-12-26T06:46:25;6.40;99.90
4566;DHT22;2295;51.050;14.608;2022-12-26T06:48:54;6.40;99.90
4566;DHT22;2295;51.050;14.608;2022-12-26T06:51:24;6.50;99.90
4566;DHT22;2295;51.050;14.608;2022-12-26T06:53:55;6.50;99.90
4566;DHT22;2295;51.050;14.608;2022-12-26T06:56:27;6.50;99.90
4566;DHT22;2295;51.050;14.608;2022-12-26T06:58:57;6.50;99.90
4566;DHT22;2295;51.050;14.608;2022-12-26T07:01:28;6.50;99.90
4566;DHT22;2295;51.050;14.608;2022-12-26T07:03:57;6.50;99.90
4566;DHT22;2295;51.050;14.608;2022-12-26T07:06:28;6.50;99.90
4566;DHT22;2295;51.050;14.608;2022-12-26T07:09:00;6.50;99.90
4566;DHT22;2295;51.050;14.608;2022-12-26T07:11:30;6.50;99.90
4566;DHT22;2295;51.050;14.608;2022-12-26T07:13:59;6.60;99.90
4566;DHT22;2295;51.050;14.608;2022-12-26T07:16:28;6.60;99.90
4566;DHT22;2295;51.050;14.608;2022-12-26T07:18:57;6.70;99.90
4566;DHT22;2295;51.050;14.608;2022-12-26T07:21:26;6.70;99.90
4566;DHT22;2295;51.050;14.608;2022-12-26T07:23:54;6.70;99.90
4566;DHT22;2295;51.050;14.608;2022-12-26T07:26:25;6.70;99.90
4566;DHT22;2295;51.050;14.608;2022-12-26T07:28:54;6.70;99.90
4566;DHT22;2295;51.050;14.608;2022-12-26T07:31:24;6.60;99.90
4566;DHT22;2295;51.050;14.608;2022-12-26T07:33:55;6.50;99.90
4566;DHT22;2295;51.050;14.608;2022-12-26T07:36:24;6.40;99.90
4566;DHT22;2295;51.050;14.608;2022-12-26T07:38:53;6.40;99.90
4566;DHT22;2295;51.050;14.608;2022-12-26T07:41:22;6.50;99.90
4566;DHT22;2295;51.050;14.608;2022-12-26T07:44:12;6.60;99.90
4566;DHT22;2295;51.050;14.608;2022-12-26T07:46:41;6.60;99.90
4566;DHT22;2295;51.050;14.608;2022-12-26T07:49:10;6.60;99.90
4566;DHT22;2295;51.050;14.608;2022-12-26T07:51:40;6.50;99.90
4566;DHT22;2295;51.050;14.608;2022-12-26T07:54:09;6.50;99.90
4566;DHT22;2295;51.050;14.608;2022-12-26T07:56:38;6.50;99.90
4566;DHT22;2295;51.050;14.608;2022-12-26T07:59:06;6.40;99.90
4566;DHT22;2295;51.050;14.608;2022-12-26T08:01:36;6.30;99.90
4566;DHT22;2295;51.050;14.608;2022-12-26T08:04:08;6.30;99.90
4566;DHT22;2295;51.050;14.608;2022-12-26T08:06:37;6.40;99.90
4566;DHT22;2295;51.050;14.608;2022-12-26T08:09:07;6.50;99.90
4566;DHT22;2295;51.050;14.608;2022-12-26T08:11:39;6.50;99.90
4566;DHT22;2295;51.050;14.608;2022-12-26T08:14:09;6.70;99.90
4566;DHT22;2295;51.050;14.608;2022-12-26T08:16:39;6.80;99.90
4566;DHT22;2295;51.050;14.608;2022-12-26T08:19:07;6.80;99.90
4566;DHT22;2295;51.050;14.608;2022-12-26T08:21:36;6.90;99.90
4566;DHT22;2295;51.050;14.608;2022-12-26T08:24:04;6.90;99.90
4566;DHT22;2295;51.050;14.608;2022-12-26T08:26:33;6.90;99.90
4566;DHT22;2295;51.050;14.608;2022-12-26T08:29:01;6.90;99.90
4566;DHT22;2295;51.050;14.608;2022-12-26T08:31:30;7.00;99.90
4566;DHT22;2295;51.050;14.608;2022-12-26T08:33:59;7.00;99.90
4566;DHT22;2295;51.050;14.608;2022-12-26T08:36:31;7.00;99.90
4566;DHT22;2295;51.050;14.608;2022-12-26T08:38:59;7.00;99.90
4566;DHT22;2295;51.050;14.608;2022-12-26T08:41:27;7.10;99.90
4566;DHT22;2295;51.050;14.608;2022-12-26T08:43:56;7.20;99.90
4566;DHT22;2295;51.050;14.608;2022-12-26T08:46:44;7.30;99.90
4566;DHT22;2295;51.050;14.608;2022-12-26T08:49:14;7.40;99.90
4566;DHT22;2295;51.050;14.608;2022-12-26T08:51:43;7.50;99.90
4566;DHT22;2295;51.050;14.608;2022-12-26T08:54:11;7.50;99.90
4566;DHT22;2295;51.050;14.608;2022-12-26T08:56:39;7.50;99.90
4566;DHT22;2295;51.050;14.608;2022-12-26T08:59:08;7.60;99.90
4566;DHT22;2295;51.050;14.608;2022-12-26T09:01:37;7.70;99.90
4566;DHT22;2295;51.050;14.608;2022-12-26T09:04:05;7.70;99.90
4566;DHT22;2295;51.050;14.608;2022-12-26T09:06:36;7.80;99.90
4566;DHT22;2295;51.050;14.608;2022-12-26T09:09:07;7.90;99.90
4566;DHT22;2295;51.050;14.608;2022-12-26T09:11:38;8.00;99.90
4566;DHT22;2295;51.050;14.608;2022-12-26T09:14:10;8.10;99.90
4566;DHT22;2295;51.050;14.608;2022-12-26T09:16:40;8.20;99.90
4566;DHT22;2295;51.050;14.608;2022-12-26T09:19:19;8.30;99.90
4566;DHT22;2295;51.050;14.608;2022-12-26T09:21:49;8.40;99.90
4566;DHT22;2295;51.050;14.608;2022-12-26T09:24:43;8.40;99.90
4566;DHT22;2295;51.050;14.608;2022-12-26T09:27:15;8.40;99.90
4566;DHT22;2295;51.050;14.608;2022-12-26T09:29:43;8.30;99.90
4566;DHT22;2295;51.050;14.608;2022-12-26T09:32:11;8.30;99.90
4566;DHT22;2295;51.050;14.608;2022-12-26T09:34:40;8.30;99.90
4566;DHT22;2295;51.050;14.608;2022-12-26T09:37:12;8.30;99.90
4566;DHT22;2295;51.050;14.608;2022-12-26T09:39:41;8.30;99.90
4566;DHT22;2295;51.050;14.608;2022-12-26T09:42:18;8.40;99.90
4566;DHT22;2295;51.050;14.608;2022-12-26T09:44:54;8.60;99.90
4566;DHT22;2295;51.050;14.608;2022-12-26T09:47:31;8.80;99.90
4566;DHT22;2295;51.050;14.608;2022-12-26T09:50:05;9.00;99.90
4566;DHT22;2295;51.050;14.608;2022-12-26T09:52:41;9.10;99.90
4566;DHT22;2295;51.050;14.608;2022-12-26T09:55:36;9.20;99.90
4566;DHT22;2295;51.050;14.608;2022-12-26T09:58:13;9.20;99.90
4566;DHT22;2295;51.050;14.608;2022-12-26T10:00:47;9.20;99.90
4566;DHT22;2295;51.050;14.608;2022-12-26T10:03:17;9.20;99.90
4566;DHT22;2295;51.050;14.608;2022-12-26T10:06:01;9.10;99.90
4566;DHT22;2295;51.050;14.608;2022-12-26T10:08:45;9.10;99.90
4566;DHT22;2295;51.050;14.608;2022-12-26T10:11:33;9.20;99.90
4566;DHT22;2295;51.050;14.608;2022-12-26T10:14:11;9.30;99.90
4566;DHT22;2295;51.050;14.608;2022-12-26T10:16:52;9.60;99.90
4566;DHT22;2295;51.050;14.608;2022-12-26T10:19:40;9.70;99.90
4566;DHT22;2295;51.050;14.608;2022-12-26T10:22:27;9.80;99.90
4566;DHT22;2295;51.050;14.608;2022-12-26T10:25:01;9.70;99.90
4566;DHT22;2295;51.050;14.608;2022-12-26T10:27:38;9.60;99.90
4566;DHT22;2295;51.050;14.608;2022-12-26T10:30:16;9.50;99.90
4566;DHT22;2295;51.050;14.608;2022-12-26T10:32:47;9.50;99.90
4566;DHT22;2295;51.050;14.608;2022-12-26T10:35:21;9.60;99.90
4566;DHT22;2295;51.050;14.608;2022-12-26T10:37:52;9.60;99.90
4566;DHT22;2295;51.050;14.608;2022-12-26T10:40:32;9.60;99.90
4566;DHT22;2295;51.050;14.608;2022-12-26T10:43:20;9.70;99.90
4566;DHT22;2295;51.050;14.608;2022-12-26T10:46:09;9.70;99.90
4566;DHT22;2295;51.050;14.608;2022-12-26T10:48:40;9.80;99.90
4566;DHT22;2295;51.050;14.608;2022-12-26T10:51:09;9.70;99.90
4566;DHT22;2295;51.050;14.608;2022-12-26T10:53:44;9.80;99.90
4566;DHT22;2295;51.050;14.608;2022-12-26T10:56:16;9.80;99.90
4566;DHT22;2295;51.050;14.608;2022-12-26T10:58:57;9.80;99.90
4566;DHT22;2295;51.050;14.608;2022-12-26T11:01:35;9.80;99.90
4566;DHT22;2295;51.050;14.608;2022-12-26T11:04:07;9.70;99.90
4566;DHT22;2295;51.050;14.608;2022-12-26T11:06:50;9.60;99.90
4566;DHT22;2295;51.050;14.608;2022-12-26T11:09:27;9.60;99.90
4566;DHT22;2295;51.050;14.608;2022-12-26T11:11:58;9.50;99.90
4566;DHT22;2295;51.050;14.608;2022-12-26T11:14:31;9.60;99.90
4566;DHT22;2295;51.050;14.608;2022-12-26T11:17:03;9.60;99.90
4566;DHT22;2295;51.050;14.608;2022-12-26T11:19:33;9.70;99.90
4566;DHT22;2295;51.050;14.608;2022-12-26T11:22:20;9.70;99.90
4566;DHT22;2295;51.050;14.608;2022-12-26T11:25:14;9.70;99.90
4566;DHT22;2295;51.050;14.608;2022-12-26T11:27:51;9.60;99.90
4566;DHT22;2295;51.050;14.608;2022-12-26T11:30:24;9.60;99.90
4566;DHT22;2295;51.050;14.608;2022-12-26T11:33:10;9.60;99.90
4566;DHT22;2295;51.050;14.608;2022-12-26T11:35:53;9.70;99.90
4566;DHT22;2295;51.050;14.608;2022-12-26T11:38:22;9.80;99.90
4566;DHT22;2295;51.050;14.608;2022-12-26T11:41:12;9.90;99.90
4566;DHT22;2295;51.050;14.608;2022-12-26T11:44:16;10.00;99.90
4566;DHT22;2295;51.050;14.608;2022-12-26T11:46:48;10.00;99.90
4566;DHT22;2295;51.050;14.608;2022-12-26T11:49:21;10.10;99.90
4566;DHT22;2295;51.050;14.608;2022-12-26T11:51:52;10.10;99.90
4566;DHT22;2295;51.050;14.608;2022-12-26T11:54:35;10.10;99.90
4566;DHT22;2295;51.050;14.608;2022-12-26T11:57:18;10.10;99.90
4566;DHT22;2295;51.050;14.608;2022-12-26T11:59:49;10.10;99.90
4566;DHT22;2295;51.050;14.608;2022-12-26T12:02:24;10.10;99.90
4566;DHT22;2295;51.050;14.608;2022-12-26T12:04:57;10.00;99.90
4566;DHT22;2295;51.050;14.608;2022-12-26T12:13:43;9.90;99.90
4566;DHT22;2295;51.050;14.608;2022-12-26T12:16:35;9.90;99.90
4566;DHT22;2295;51.050;14.608;2022-12-26T12:19:25;9.80;99.90
4566;DHT22;2295;51.050;14.608;2022-12-26T12:22:08;9.70;99.90
4566;DHT22;2295;51.050;14.608;2022-12-26T12:24:51;9.70;99.90
4566;DHT22;2295;51.050;14.608;2022-12-26T12:27:28;9.60;99.90
4566;DHT22;2295;51.050;14.608;2022-12-26T12:30:17;9.60;99.90
4566;DHT22;2295;51.050;14.608;2022-12-26T12:33:10;9.60;99.90
4566;DHT22;2295;51.050;14.608;2022-12-26T12:35:53;9.60;99.90
4566;DHT22;2295;51.050;14.608;2022-12-26T12:38:28;9.50;99.90
4566;DHT22;2295;51.050;14.608;2022-12-26T12:41:12;9.50;99.90
4566;DHT22;2295;51.050;14.608;2022-12-26T12:43:55;9.40;99.90
4566;DHT22;2295;51.050;14.608;2022-12-26T12:46:40;9.40;99.90
4566;DHT22;2295;51.050;14.608;2022-12-26T12:49:33;9.30;99.90
4566;DHT22;2295;51.050;14.608;2022-12-26T12:52:11;9.30;99.90
4566;DHT22;2295;51.050;14.608;2022-12-26T12:55:01;9.20;99.90
4566;DHT22;2295;51.050;14.608;2022-12-26T12:57:39;9.20;99.90
4566;DHT22;2295;51.050;14.608;2022-12-26T13:00:14;9.20;99.90
4566;DHT22;2295;51.050;14.608;2022-12-26T13:02:48;9.20;99.90
4566;DHT22;2295;51.050;14.608;2022-12-26T13:05:28;9.20;99.90
4566;DHT22;2295;51.050;14.608;2022-12-26T13:08:00;9.10;99.90
4566;DHT22;2295;51.050;14.608;2022-12-26T13:10:34;9.10;99.90
4566;DHT22;2295;51.050;14.608;2022-12-26T13:13:12;9.20;99.90
4566;DHT22;2295;51.050;14.608;2022-12-26T13:15:47;9.20;99.90
4566;DHT22;2295;51.050;14.608;2022-12-26T13:18:19;9.10;99.90
4566;DHT22;2295;51.050;14.608;2022-12-26T13:20:56;9.10;99.90
4566;DHT22;2295;51.050;14.608;2022-12-26T13:23:29;9.00;99.90
4566;DHT22;2295;51.050;14.608;2022-12-26T13:26:18;9.00;99.90
4566;DHT22;2295;51.050;14.608;2022-12-26T13:28:59;9.00;99.90
4566;DHT22;2295;51.050;14.608;2022-12-26T13:31:31;9.10;99.90
4566;DHT22;2295;51.050;14.608;2022-12-26T13:34:00;9.10;99.90
4566;DHT22;2295;51.050;14.608;2022-12-26T13:36:37;9.00;99.90
4566;DHT22;2295;51.050;14.608;2022-12-26T13:39:30;9.00;99.90
4566;DHT22;2295;51.050;14.608;2022-12-26T13:42:14;9.00;99.90
4566;DHT22;2295;51.050;14.608;2022-12-26T13:54:24;9.00;99.90
4566;DHT22;2295;51.050;14.608;2022-12-26T14:06:20;8.50;99.90
4566;DHT22;2295;51.050;14.608;2022-12-26T14:09:12;8.40;99.90
4566;DHT22;2295;51.050;14.608;2022-12-26T14:11:58;8.30;99.90
4566;DHT22;2295;51.050;14.608;2022-12-26T14:14:36;8.10;99.90
4566;DHT22;2295;51.050;14.608;2022-12-26T14:17:14;8.00;99.90
4566;DHT22;2295;51.050;14.608;2022-12-26T14:19:54;7.90;99.90
4566;DHT22;2295;51.050;14.608;2022-12-26T14:22:35;7.80;99.90
4566;DHT22;2295;51.050;14.608;2022-12-26T14:25:14;7.80;99.90
4566;DHT22;2295;51.050;14.608;2022-12-26T14:27:50;7.70;99.90
4566;DHT22;2295;51.050;14.608;2022-12-26T14:30:24;7.60;99.90
4566;DHT22;2295;51.050;14.608;2022-12-26T14:33:17;7.60;99.90
4566;DHT22;2295;51.050;14.608;2022-12-26T14:36:01;7.50;99.90
4566;DHT22;2295;51.050;14.608;2022-12-26T14:38:39;7.50;99.90
4566;DHT22;2295;51.050;14.608;2022-12-26T14:41:13;7.50;99.90
4566;DHT22;2295;51.050;14.608;2022-12-26T14:44:14;7.50;99.90
4566;DHT22;2295;51.050;14.608;2022-12-26T14:47:00;7.40;99.90
4566;DHT22;2295;51.050;14.608;2022-12-26T14:49:40;7.40;99.90
4566;DHT22;2295;51.050;14.608;2022-12-26T14:52:42;7.30;99.90
4566;DHT22;2295;51.050;14.608;2022-12-26T14:55:45;7.30;99.90
4566;DHT22;2295;51.050;14.608;2022-12-26T14:58:41;7.30;99.90
4566;DHT22;2295;51.050;14.608;2022-12-26T15:01:48;7.30;99.90
4566;DHT22;2295;51.050;14.608;2022-12-26T15:04:48;7.20;99.90
4566;DHT22;2295;51.050;14.608;2022-12-26T15:10:59;7.10;99.90
4566;DHT22;2295;51.050;14.608;2022-12-26T15:16:36;7.10;99.90
4566;DHT22;2295;51.050;14.608;2022-12-26T15:19:36;7.00;99.90
4566;DHT22;2295;51.050;14.608;2022-12-26T15:28:59;7.10;99.90
4566;DHT22;2295;51.050;14.608;2022-12-26T15:31:49;7.00;99.90
4566;DHT22;2295;51.050;14.608;2022-12-26T15:34:52;7.00;99.90
4566;DHT22;2295;51.050;14.608;2022-12-26T15:37:36;6.90;99.90
4566;DHT22;2295;51.050;14.608;2022-12-26T15:40:13;6.90;99.90
4566;DHT22;2295;51.050;14.608;2022-12-26T15:43:11;6.90;99.90
4566;DHT22;2295;51.050;14.608;2022-12-26T15:45:47;6.90;99.90
4566;DHT22;2295;51.050;14.608;2022-12-26T15:48:28;6.90;99.90
4566;DHT22;2295;51.050;14.608;2022-12-26T15:51:03;6.90;99.90
4566;DHT22;2295;51.050;14.608;2022-12-26T15:53:42;6.90;99.90
4566;DHT22;2295;51.050;14.608;2022-12-26T15:56:31;6.90;99.90
4566;DHT22;2295;51.050;14.608;2022-12-26T15:59:28;6.90;99.90
4566;DHT22;2295;51.050;14.608;2022-12-26T16:01:59;6.80;99.90
4566;DHT22;2295;51.050;14.608;2022-12-26T16:04:31;6.70;99.90
4566;DHT22;2295;51.050;14.608;2022-12-26T16:07:07;6.70;99.90
4566;DHT22;2295;51.050;14.608;2022-12-26T16:09:41;6.80;99.90
4566;DHT22;2295;51.050;14.608;2022-12-26T16:12:20;6.70;99.90
4566;DHT22;2295;51.050;14.608;2022-12-26T16:15:03;6.70;99.90
4566;DHT22;2295;51.050;14.608;2022-12-26T16:17:31;6.60;99.90
4566;DHT22;2295;51.050;14.608;2022-12-26T16:20:15;6.50;99.90
4566;DHT22;2295;51.050;14.608;2022-12-26T16:22:47;6.50;99.90
4566;DHT22;2295;51.050;14.608;2022-12-26T16:25:17;6.40;99.90
4566;DHT22;2295;51.050;14.608;2022-12-26T16:27:47;6.40;99.90
4566;DHT22;2295;51.050;14.608;2022-12-26T16:30:19;6.40;99.90
4566;DHT22;2295;51.050;14.608;2022-12-26T16:32:48;6.40;99.90
4566;DHT22;2295;51.050;14.608;2022-12-26T16:35:21;6.40;99.90
4566;DHT22;2295;51.050;14.608;2022-12-26T16:37:55;6.30;99.90
4566;DHT22;2295;51.050;14.608;2022-12-26T16:40:28;6.30;99.90
4566;DHT22;2295;51.050;14.608;2022-12-26T16:43:00;6.30;99.90
4566;DHT22;2295;51.050;14.608;2022-12-26T16:45:31;6.30;99.90
4566;DHT22;2295;51.050;14.608;2022-12-26T16:48:00;6.40;99.90
4566;DHT22;2295;51.050;14.608;2022-12-26T16:50:33;6.30;99.90
4566;DHT22;2295;51.050;14.608;2022-12-26T16:53:11;6.30;99.90
4566;DHT22;2295;51.050;14.608;2022-12-26T16:55:43;6.20;99.90
4566;DHT22;2295;51.050;14.608;2022-12-26T16:58:15;6.20;99.90
4566;DHT22;2295;51.050;14.608;2022-12-26T17:00:53;6.10;99.90
4566;DHT22;2295;51.050;14.608;2022-12-26T17:03:32;6.10;99.90
4566;DHT22;2295;51.050;14.608;2022-12-26T17:06:09;6.00;99.90
4566;DHT22;2295;51.050;14.608;2022-12-26T17:08:42;6.10;99.90
4566;DHT22;2295;51.050;14.608;2022-12-26T17:11:15;6.00;99.90
4566;DHT22;2295;51.050;14.608;2022-12-26T17:13:50;6.00;99.90
4566;DHT22;2295;51.050;14.608;2022-12-26T17:16:23;5.90;99.90
4566;DHT22;2295;51.050;14.608;2022-12-26T17:18:52;5.90;99.90
4566;DHT22;2295;51.050;14.608;2022-12-26T17:21:24;5.90;99.90
4566;DHT22;2295;51.050;14.608;2022-12-26T17:26:52;5.90;99.90
4566;DHT22;2295;51.050;14.608;2022-12-26T17:32:33;5.70;99.90
4566;DHT22;2295;51.050;14.608;2022-12-26T17:35:04;5.70;99.90
4566;DHT22;2295;51.050;14.608;2022-12-26T17:37:34;5.70;99.90
4566;DHT22;2295;51.050;14.608;2022-12-26T17:40:17;5.70;99.90
4566;DHT22;2295;51.050;14.608;2022-12-26T17:42:48;5.80;99.90
4566;DHT22;2295;51.050;14.608;2022-12-26T17:45:19;5.70;99.90
4566;DHT22;2295;51.050;14.608;2022-12-26T17:48:12;5.50;99.90
4566;DHT22;2295;51.050;14.608;2022-12-26T17:50:52;5.40;99.90
4566;DHT22;2295;51.050;14.608;2022-12-26T17:53:24;5.30;99.90
4566;DHT22;2295;51.050;14.608;2022-12-26T17:55:56;5.30;99.90
4566;DHT22;2295;51.050;14.608;2022-12-26T17:58:25;5.30;99.90